createdAt,value
2023-01-01T00:00:59.547Z,100423.84
2023-01-01T00:04:01.608Z,100415.03
2023-01-01T00:07:04.778Z,100415.41
2023-01-01T00:10:25.993Z,100419.09
2023-01-01T00:13:27.802Z,100424.88
2023-01-01T00:16:29.639Z,100426.91
2023-01-01T00:19:31.441Z,100428.34
2023-01-01T00:22:53.886Z,100425.25
2023-01-01T00:25:56.730Z,100427.63
2023-01-01T00:28:58.573Z,100428.72
2023-01-01T00:32:00.344Z,100437.28
2023-01-01T00:35:02.133Z,100429.63
2023-01-01T00:38:05.302Z,100423.97
2023-01-01T00:41:07.000Z,100423.03
2023-01-01T00:44:08.730Z,100425.00
2023-01-01T00:47:10.488Z,100422.63
2023-01-01T00:50:12.244Z,100423.03
2023-01-01T00:53:15.509Z,100421.34
2023-01-01T00:56:17.311Z,100426.06
2023-01-01T00:59:21.531Z,100427.63
2023-01-01T01:02:26.053Z,100421.03
2023-01-01T01:05:27.988Z,100414.44
2023-01-01T01:08:33.016Z,100414.56
2023-01-01T01:11:34.811Z,100401.25
2023-01-01T01:14:36.491Z,100400.16
2023-01-01T01:17:38.417Z,100406.50
2023-01-01T01:20:40.202Z,100404.78
2023-01-01T01:23:43.881Z,100403.94
2023-01-01T01:26:45.751Z,100414.25
2023-01-01T01:29:47.624Z,100412.94
2023-01-01T01:32:49.602Z,100420.97
2023-01-01T01:35:54.967Z,100425.22
2023-01-01T01:38:58.573Z,100437.25
2023-01-01T01:42:02.454Z,100432.09
2023-01-01T01:45:06.790Z,100433.56
2023-01-01T01:48:09.605Z,100441.50
2023-01-01T01:51:14.477Z,100442.56
2023-01-01T01:54:20.780Z,100438.44
2023-01-01T01:57:23.699Z,100437.03
2023-01-01T02:00:26.115Z,100429.63
2023-01-01T02:03:33.925Z,100437.53
2023-01-01T02:06:36.819Z,100438.06
2023-01-01T02:09:40.424Z,100447.19
2023-01-01T02:12:42.360Z,100443.19
2023-01-01T02:15:52.519Z,100447.84
2023-01-01T02:18:59.994Z,100443.72
2023-01-01T02:22:10.957Z,100440.72
2023-01-01T02:25:23.176Z,100438.38
2023-01-01T02:28:45.444Z,100444.44
2023-01-01T02:31:50.880Z,100439.00
2023-01-01T02:34:59.989Z,100440.31
2023-01-01T02:38:07.829Z,100436.38
2023-01-01T02:41:12.913Z,100441.41
2023-01-01T02:44:16.996Z,100445.88
2023-01-01T02:47:21.638Z,100447.19
2023-01-01T02:50:25.665Z,100458.66
2023-01-01T02:53:32.366Z,100463.13
2023-01-01T02:56:42.777Z,100470.41
2023-01-01T03:00:19.040Z,100471.88
2023-01-01T03:03:28.696Z,100465.53
2023-01-01T03:06:38.535Z,100466.84
2023-01-01T03:09:46.953Z,100472.91
2023-01-01T03:12:56.913Z,100475.31
2023-01-01T03:16:06.070Z,100473.56
2023-01-01T03:19:12.052Z,100477.00
2023-01-01T03:22:17.229Z,100473.94
2023-01-01T03:25:23.141Z,100475.56
2023-01-01T03:28:28.731Z,100481.34
2023-01-01T03:31:33.492Z,100484.09
2023-01-01T03:34:40.373Z,100479.00
2023-01-01T03:37:44.452Z,100463.84
2023-01-01T03:40:48.834Z,100474.91
2023-01-01T03:43:54.396Z,100478.59
2023-01-01T03:46:58.485Z,100477.81
2023-01-01T03:50:02.229Z,100478.56
2023-01-01T03:53:10.064Z,100479.66
2023-01-01T03:56:19.602Z,100474.25
2023-01-01T03:59:26.897Z,100470.28
2023-01-01T04:02:37.168Z,100472.25
2023-01-01T04:05:41.566Z,100480.16
2023-01-01T04:08:43.423Z,100480.56
2023-01-01T04:12:04.096Z,100477.28
2023-01-01T04:15:06.702Z,100487.97
2023-01-01T04:18:09.796Z,100480.31
2023-01-01T04:21:12.689Z,100481.91
2023-01-01T04:24:14.984Z,100479.78
2023-01-01T04:27:16.752Z,100480.56
2023-01-01T04:30:19.175Z,100480.19
2023-01-01T04:33:22.198Z,100485.47
2023-01-01T04:36:23.897Z,100482.41
2023-01-01T04:39:25.537Z,100486.41
2023-01-01T04:42:27.221Z,100487.03
2023-01-01T04:45:29.020Z,100483.88
2023-01-01T04:48:32.659Z,100493.63
2023-01-01T04:51:34.425Z,100494.72
2023-01-01T04:54:36.243Z,100494.69
2023-01-01T04:57:38.047Z,100489.41
2023-01-01T05:00:40.027Z,100499.31
2023-01-01T05:03:43.223Z,100485.59
2023-01-01T05:06:44.901Z,100492.47
2023-01-01T05:09:46.703Z,100500.66
2023-01-01T05:12:48.509Z,100513.44
2023-01-01T05:15:50.164Z,100516.88
2023-01-01T05:18:53.874Z,100519.38
2023-01-01T05:21:55.758Z,100527.44
2023-01-01T05:24:57.499Z,100529.34
2023-01-01T05:28:00.005Z,100532.31
2023-01-01T05:31:05.641Z,100527.91
2023-01-01T05:37:09.286Z,100532.53
2023-01-01T05:40:11.870Z,100534.09
2023-01-01T05:43:13.589Z,100537.41
2023-01-01T05:46:17.348Z,100543.38
2023-01-01T05:49:20.408Z,100544.00
2023-01-01T05:52:26.523Z,100549.94
2023-01-01T05:55:29.088Z,100549.91
2023-01-01T05:58:32.257Z,100553.59
2023-01-01T06:01:38.755Z,100557.53
2023-01-01T06:04:46.394Z,100560.06
2023-01-01T06:07:48.841Z,100560.69
2023-01-01T06:10:58.428Z,100556.59
2023-01-01T06:14:01.147Z,100555.81
2023-01-01T06:17:03.026Z,100557.91
2023-01-01T06:20:06.972Z,100559.72
2023-01-01T06:23:08.662Z,100557.09
2023-01-01T06:26:12.376Z,100561.06
2023-01-01T06:29:14.083Z,100568.38
2023-01-01T06:32:15.878Z,100575.34
2023-01-01T06:35:18.892Z,100590.03
2023-01-01T06:38:21.668Z,100593.72
2023-01-01T06:41:25.510Z,100595.47
2023-01-01T06:44:27.171Z,100596.34
2023-01-01T06:47:28.866Z,100588.66
2023-01-01T06:50:31.941Z,100584.94
2023-01-01T06:53:33.608Z,100604.41
2023-01-01T06:56:35.846Z,100602.06
2023-01-01T06:59:38.422Z,100602.19
2023-01-01T07:02:40.311Z,100624.22
2023-01-01T07:05:43.551Z,100617.50
2023-01-01T07:08:45.222Z,100633.09
2023-01-01T07:11:46.948Z,100613.03
2023-01-01T07:14:48.692Z,100631.25
2023-01-01T07:17:50.402Z,100625.25
2023-01-01T07:20:55.744Z,100635.97
2023-01-01T07:23:58.362Z,100629.75
2023-01-01T07:27:00.022Z,100630.00
2023-01-01T07:30:02.083Z,100620.06
2023-01-01T07:33:03.924Z,100625.34
2023-01-01T07:36:08.718Z,100619.13
2023-01-01T07:39:10.393Z,100634.50
2023-01-01T07:42:11.999Z,100649.81
2023-01-01T07:45:14.018Z,100651.09
2023-01-01T07:48:16.440Z,100658.09
2023-01-01T07:51:19.702Z,100660.59
2023-01-01T07:54:21.457Z,100671.03
2023-01-01T07:57:23.068Z,100673.41
2023-01-01T08:00:24.836Z,100687.78
2023-01-01T08:03:26.740Z,100690.34
2023-01-01T08:06:29.934Z,100686.16
2023-01-01T08:09:31.745Z,100692.25
2023-01-01T08:12:33.721Z,100696.06
2023-01-01T08:15:36.095Z,100671.97
2023-01-01T08:18:38.230Z,100675.97
2023-01-01T08:21:41.297Z,100679.28
2023-01-01T08:24:43.022Z,100681.66
2023-01-01T08:27:44.727Z,100675.38
2023-01-01T08:30:46.864Z,100687.16
2023-01-01T08:33:48.604Z,100687.69
2023-01-01T08:36:51.673Z,100679.28
2023-01-01T08:39:53.735Z,100679.94
2023-01-01T08:42:55.525Z,100684.94
2023-01-01T08:45:57.222Z,100697.88
2023-01-01T08:48:58.982Z,100696.84
2023-01-01T08:52:02.050Z,100699.16
2023-01-01T08:55:04.157Z,100703.75
2023-01-01T08:58:06.770Z,100699.84
2023-01-01T09:01:10.158Z,100700.91
2023-01-01T09:04:15.705Z,100689.88
2023-01-01T09:07:19.164Z,100709.28
2023-01-01T09:10:20.947Z,100715.91
2023-01-01T09:13:22.741Z,100712.31
2023-01-01T09:16:24.798Z,100719.19
2023-01-01T09:19:27.282Z,100717.19
2023-01-01T09:22:30.323Z,100731.56
2023-01-01T09:25:32.511Z,100725.91
2023-01-01T09:28:34.568Z,100734.63
2023-01-01T09:31:36.478Z,100737.44
2023-01-01T09:34:38.345Z,100741.28
2023-01-01T09:37:41.418Z,100761.00
2023-01-01T09:40:55.077Z,100759.44
2023-01-01T09:44:06.614Z,100760.88
2023-01-01T09:47:21.110Z,100759.56
2023-01-01T09:50:25.450Z,100758.38
2023-01-01T09:53:32.792Z,100752.56
2023-01-01T09:56:36.450Z,100750.31
2023-01-01T09:59:38.415Z,100750.81
2023-01-01T10:02:53.600Z,100743.84
2023-01-01T10:06:03.552Z,100733.03
2023-01-01T10:09:20.589Z,100743.72
2023-01-01T10:12:28.737Z,100742.41
2023-01-01T10:15:36.207Z,100737.38
2023-01-01T10:18:40.349Z,100737.94
2023-01-01T10:21:47.262Z,100731.97
2023-01-01T10:24:56.296Z,100733.31
2023-01-01T10:28:00.445Z,100731.84
2023-01-01T10:31:15.323Z,100740.03
2023-01-01T10:34:20.270Z,100738.72
2023-01-01T10:37:22.563Z,100726.41
2023-01-01T10:40:27.979Z,100728.63
2023-01-01T10:43:29.684Z,100727.78
2023-01-01T10:46:32.282Z,100719.97
2023-01-01T10:49:34.371Z,100717.44
2023-01-01T10:52:38.582Z,100713.72
2023-01-01T10:55:41.867Z,100705.91
2023-01-01T10:58:45.396Z,100714.72
2023-01-01T11:01:47.211Z,100713.16
2023-01-01T11:04:50.383Z,100711.28
2023-01-01T11:07:52.308Z,100702.38
2023-01-01T11:10:57.595Z,100703.56
2023-01-01T11:14:04.475Z,100703.56
2023-01-01T11:17:07.185Z,100707.88
2023-01-01T11:20:18.695Z,100696.34
2023-01-01T11:23:30.107Z,100695.84
2023-01-01T11:26:34.405Z,100690.22
2023-01-01T11:29:36.179Z,100692.00
2023-01-01T11:32:39.205Z,100696.56
2023-01-01T11:35:49.718Z,100687.03
2023-01-01T11:39:05.868Z,100685.66
2023-01-01T11:42:09.004Z,100681.16
2023-01-01T11:45:18.873Z,100676.53
2023-01-01T11:48:25.927Z,100670.47
2023-01-01T11:51:30.694Z,100668.72
2023-01-01T11:54:36.319Z,100678.63
2023-01-01T11:57:44.001Z,100670.69
2023-01-01T12:00:47.622Z,100663.50
2023-01-01T12:03:54.177Z,100652.38
2023-01-01T12:07:00.078Z,100653.69
2023-01-01T12:10:06.677Z,100647.31
2023-01-01T12:13:17.495Z,100642.59
2023-01-01T12:16:26.466Z,100641.13
2023-01-01T12:19:33.544Z,100643.66
2023-01-01T12:22:35.630Z,100653.28
2023-01-01T12:25:41.469Z,100650.81
2023-01-01T12:29:06.853Z,100649.75
2023-01-01T12:32:17.521Z,100640.50
2023-01-01T12:35:32.712Z,100640.81
2023-01-01T12:39:07.302Z,100640.44
2023-01-01T12:42:17.469Z,100642.69
2023-01-01T12:46:00.360Z,100641.00
2023-01-01T12:49:30.412Z,100641.13
2023-01-01T12:52:44.142Z,100633.19
2023-01-01T12:56:23.170Z,100633.88
2023-01-01T12:59:30.262Z,100633.19
2023-01-01T13:02:48.009Z,100631.63
2023-01-01T13:05:53.387Z,100631.31
2023-01-01T13:08:59.691Z,100627.25
2023-01-01T13:12:05.688Z,100630.41
2023-01-01T13:15:41.532Z,100629.47
2023-01-01T13:18:49.460Z,100635.41
2023-01-01T13:21:51.256Z,100624.69
2023-01-01T13:25:05.259Z,100632.63
2023-01-01T13:28:13.571Z,100625.63
2023-01-01T13:31:15.275Z,100627.09
2023-01-01T13:34:37.671Z,100627.09
2023-01-01T13:37:45.723Z,100620.50
2023-01-01T13:40:51.327Z,100629.22
2023-01-01T13:43:54.713Z,100621.59
2023-01-01T13:47:11.637Z,100625.28
2023-01-01T13:50:20.631Z,100629.78
2023-01-01T13:53:51.881Z,100636.22
2023-01-01T13:56:58.554Z,100631.63
2023-01-01T14:00:17.836Z,100632.75
2023-01-01T14:03:20.767Z,100625.72
2023-01-01T14:06:29.889Z,100623.31
2023-01-01T14:09:31.652Z,100626.38
2023-01-01T14:12:38.446Z,100632.69
2023-01-01T14:15:46.706Z,100641.16
2023-01-01T14:18:50.674Z,100626.66
2023-01-01T14:21:54.597Z,100624.28
2023-01-01T14:24:56.692Z,100623.19
2023-01-01T14:27:59.103Z,100622.78
2023-01-01T14:31:10.663Z,100621.88
2023-01-01T14:34:14.699Z,100628.31
2023-01-01T14:37:24.497Z,100619.47
2023-01-01T14:40:30.202Z,100620.94
2023-01-01T14:43:32.008Z,100623.31
2023-01-01T14:46:39.629Z,100620.84
2023-01-01T14:49:42.644Z,100626.38
2023-01-01T14:52:50.406Z,100627.03
2023-01-01T14:55:52.143Z,100632.09
2023-01-01T14:58:56.061Z,100637.28
2023-01-01T15:02:02.272Z,100627.38
2023-01-01T15:05:31.433Z,100612.28
2023-01-01T15:08:37.672Z,100615.34
2023-01-01T15:11:39.523Z,100606.75
2023-01-01T15:14:45.479Z,100612.16
2023-01-01T15:17:47.671Z,100609.00
2023-01-01T15:20:53.762Z,100607.00
2023-01-01T15:24:01.722Z,100608.75
2023-01-01T15:27:06.572Z,100599.88
2023-01-01T15:30:23.669Z,100594.31
2023-01-01T15:33:25.747Z,100585.75
2023-01-01T15:36:27.520Z,100581.25
2023-01-01T15:39:31.952Z,100566.84
2023-01-01T15:42:35.663Z,100561.41
2023-01-01T15:45:39.208Z,100566.66
2023-01-01T15:48:48.117Z,100562.94
2023-01-01T15:51:49.914Z,100577.06
2023-01-01T15:54:53.438Z,100575.50
2023-01-01T15:57:55.664Z,100571.88
2023-01-01T16:01:00.625Z,100569.44
2023-01-01T16:04:08.930Z,100580.66
2023-01-01T16:07:15.983Z,100584.22
2023-01-01T16:10:19.086Z,100576.69
2023-01-01T16:13:20.836Z,100580.13
2023-01-01T16:16:28.885Z,100581.94
2023-01-01T16:19:31.657Z,100580.38
2023-01-01T16:22:36.569Z,100580.34
2023-01-01T16:25:40.047Z,100580.91
2023-01-01T16:28:41.779Z,100578.44
2023-01-01T16:31:44.736Z,100583.72
2023-01-01T16:34:46.470Z,100569.91
2023-01-01T16:37:48.218Z,100561.38
2023-01-01T16:40:52.616Z,100556.28
2023-01-01T16:43:54.433Z,100554.50
2023-01-01T16:46:56.131Z,100551.38
2023-01-01T16:49:58.132Z,100546.22
2023-01-01T16:52:59.846Z,100543.38
2023-01-01T16:56:02.950Z,100537.91
2023-01-01T16:59:04.658Z,100530.13
2023-01-01T17:02:06.613Z,100536.53
2023-01-01T17:05:09.642Z,100537.41
2023-01-01T17:08:11.885Z,100530.47
2023-01-01T17:11:16.963Z,100531.06
2023-01-01T17:14:19.042Z,100524.06
2023-01-01T17:17:20.720Z,100511.53
2023-01-01T17:20:23.036Z,100515.66
2023-01-01T17:23:25.069Z,100499.00
2023-01-01T17:26:28.243Z,100502.06
2023-01-01T17:29:30.025Z,100498.03
2023-01-01T17:32:34.520Z,100505.97
2023-01-01T17:35:37.423Z,100486.94
2023-01-01T17:38:39.588Z,100491.28
2023-01-01T17:41:43.708Z,100486.19
2023-01-01T17:44:45.637Z,100492.91
2023-01-01T17:47:47.404Z,100495.50
2023-01-01T17:50:49.106Z,100489.88
2023-01-01T17:53:51.051Z,100493.66
2023-01-01T17:56:54.258Z,100490.66
2023-01-01T17:59:58.928Z,100478.75
2023-01-01T18:03:00.536Z,100484.09
2023-01-01T18:06:02.788Z,100479.56
2023-01-01T18:09:06.797Z,100460.84
2023-01-01T18:12:09.984Z,100463.28
2023-01-01T18:15:12.126Z,100456.44
2023-01-01T18:18:14.871Z,100449.16
2023-01-01T18:21:20.719Z,100458.34
2023-01-01T18:24:22.463Z,100448.22
2023-01-01T18:27:25.698Z,100446.59
2023-01-01T18:30:27.516Z,100442.28
2023-01-01T18:33:29.189Z,100429.03
2023-01-01T18:36:33.168Z,100405.75
2023-01-01T18:39:35.629Z,100402.91
2023-01-01T18:42:45.722Z,100419.66
2023-01-01T18:45:47.588Z,100430.91
2023-01-01T18:48:52.680Z,100426.63
2023-01-01T18:52:06.498Z,100413.19
2023-01-01T18:55:13.541Z,100414.19
2023-01-01T18:58:18.745Z,100420.28
2023-01-01T19:01:23.571Z,100414.81
2023-01-01T19:04:25.263Z,100410.63
2023-01-01T19:07:27.115Z,100397.84
2023-01-01T19:10:34.287Z,100405.84
2023-01-01T19:13:40.443Z,100398.16
2023-01-01T19:16:42.675Z,100389.84
2023-01-01T19:19:44.540Z,100386.00
2023-01-01T19:22:48.233Z,100376.50
2023-01-01T19:25:51.148Z,100381.44
2023-01-01T19:28:55.775Z,100394.41
2023-01-01T19:31:58.486Z,100396.38
2023-01-01T19:35:00.262Z,100395.19
2023-01-01T19:38:02.112Z,100392.19
2023-01-01T19:41:03.891Z,100390.72
2023-01-01T19:44:10.285Z,100379.03
2023-01-01T19:47:13.698Z,100379.13
2023-01-01T19:50:15.721Z,100378.47
2023-01-01T19:53:17.448Z,100380.19
2023-01-01T19:56:19.303Z,100378.88
2023-01-01T19:59:26.355Z,100378.84
2023-01-01T20:02:46.041Z,100376.47
2023-01-01T20:05:49.735Z,100391.25
2023-01-01T20:08:51.808Z,100403.00
2023-01-01T20:11:53.431Z,100405.38
2023-01-01T20:14:56.444Z,100397.44
2023-01-01T20:17:58.091Z,100410.19
2023-01-01T20:21:27.077Z,100402.13
2023-01-01T20:24:28.806Z,100401.91
2023-01-01T20:27:30.603Z,100401.47
2023-01-01T20:30:33.818Z,100406.28
2023-01-01T20:33:35.551Z,100409.78
2023-01-01T20:36:55.747Z,100423.09
2023-01-01T20:39:57.428Z,100412.81
2023-01-01T20:42:59.398Z,100419.00
2023-01-01T20:46:02.453Z,100412.41
2023-01-01T20:49:04.421Z,100406.63
2023-01-01T20:52:06.391Z,100405.91
2023-01-01T20:55:08.624Z,100409.41
2023-01-01T20:58:10.321Z,100412.41
2023-01-01T21:01:13.544Z,100392.19
2023-01-01T21:04:15.453Z,100400.03
2023-01-01T21:07:17.253Z,100407.22
2023-01-01T21:10:19.504Z,100415.91
2023-01-01T21:13:23.096Z,100404.25
2023-01-01T21:16:31.228Z,100408.09
2023-01-01T21:19:32.923Z,100411.44
2023-01-01T21:22:34.602Z,100413.16
2023-01-01T21:25:51.223Z,100404.31
2023-01-01T21:28:53.470Z,100413.47
2023-01-01T21:32:06.932Z,100420.50
2023-01-01T21:35:15.961Z,100422.06
2023-01-01T21:38:21.347Z,100421.09
2023-01-01T21:41:24.855Z,100418.44
2023-01-01T21:44:26.799Z,100422.19
2023-01-01T21:47:29.761Z,100429.69
2023-01-01T21:50:41.616Z,100426.56
2023-01-01T21:53:43.263Z,100426.50
2023-01-01T21:56:52.244Z,100428.34
2023-01-01T21:59:54.857Z,100424.41
2023-01-01T22:02:57.860Z,100419.34
2023-01-01T22:05:59.760Z,100423.50
2023-01-01T22:09:02.087Z,100418.47
2023-01-01T22:12:18.908Z,100418.41
2023-01-01T22:15:29.591Z,100417.84
2023-01-01T22:18:38.367Z,100409.66
2023-01-01T22:21:40.818Z,100409.06
2023-01-01T22:24:44.079Z,100419.41
2023-01-01T22:27:45.748Z,100419.53
2023-01-01T22:30:50.197Z,100416.72
2023-01-01T22:33:55.344Z,100427.47
2023-01-01T22:36:57.181Z,100426.22
2023-01-01T22:40:00.446Z,100423.00
2023-01-01T22:43:05.088Z,100421.25
2023-01-01T22:46:12.190Z,100426.34
2023-01-01T22:49:19.487Z,100419.34
2023-01-01T22:52:21.223Z,100420.53
2023-01-01T22:55:23.398Z,100418.84
2023-01-01T22:58:25.056Z,100422.63
2023-01-01T23:01:26.883Z,100418.50
2023-01-01T23:04:29.924Z,100422.50
2023-01-01T23:07:36.588Z,100409.22
2023-01-01T23:10:41.458Z,100413.06
2023-01-01T23:14:06.155Z,100418.56
2023-01-01T23:17:08.281Z,100426.88
2023-01-01T23:20:11.407Z,100412.69
2023-01-01T23:23:13.102Z,100416.78
2023-01-01T23:26:14.878Z,100409.50
2023-01-01T23:29:18.055Z,100414.69
2023-01-01T23:32:20.253Z,100418.47
2023-01-01T23:35:23.301Z,100404.09
2023-01-01T23:38:25.709Z,100406.47
2023-01-01T23:41:29.860Z,100413.50
2023-01-01T23:44:31.678Z,100402.13
2023-01-01T23:47:33.601Z,100402.66
2023-01-01T23:50:36.987Z,100410.31
2023-01-01T23:53:38.690Z,100400.44
2023-01-01T23:56:40.525Z,100402.56
2023-01-01T23:59:42.157Z,100401.94
